Time;durP1;ratioP1;P1;durP2;ratioP2;P2;SDS_P1;SDS_P2;PMS_P1;PMS_P2;Temp;Humidity;BMP_temperature;BMP_pressure;BME280_temperature;BME280_humidity;BME280_pressure;Samples;Min_cycle;Max_cycle;Signal;HPM_P1;HPM_P2
2021/12/03 00:02:21;;;;;;;18.60;6.80;;;;;;;;;;5079454;28;20090;-79
2021/12/03 00:04:46;;;;;;;15.80;5.72;;;;;;;;;;5085416;28;20084;-78
2021/12/03 00:07:12;;;;;;;15.75;5.80;;;;;;;;;;5082066;28;20242;-80
2021/12/03 00:09:37;;;;;;;18.98;6.68;;;;;;;;;;5080075;28;20374;-80
2021/12/03 00:12:04;;;;;;;18.52;6.90;;;;;;;;;;5083140;28;20051;-81
2021/12/03 00:14:30;;;;;;;19.95;7.43;;;;;;;;;;5083009;28;20316;-79
2021/12/03 00:16:55;;;;;;;21.65;8.23;;;;;;;;;;5083166;28;20085;-80
2021/12/03 00:19:20;;;;;;;20.83;9.18;;;;;;;;;;5082835;28;20062;-80
2021/12/03 00:21:46;;;;;;;20.77;9.55;;;;;;;;;;5082927;28;20208;-80
2021/12/03 00:24:11;;;;;;;22.83;9.13;;;;;;;;;;5086495;28;20040;-79
2021/12/03 00:26:37;;;;;;;20.27;8.60;;;;;;;;;;5084615;28;20101;-80
2021/12/03 00:29:04;;;;;;;22.77;8.80;;;;;;;;;;5082758;28;20356;-80
2021/12/03 00:31:29;;;;;;;23.85;9.80;;;;;;;;;;5064959;28;20349;-80
2021/12/03 00:33:55;;;;;;;23.63;9.55;;;;;;;;;;5081412;28;20012;-81
2021/12/03 00:36:20;;;;;;;23.00;10.10;;;;;;;;;;5085870;28;20039;-80
2021/12/03 00:38:49;;;;;;;19.27;8.27;;;;;;;;;;5090029;28;20082;-80
2021/12/03 00:41:19;;;;;;;20.42;7.72;;;;;;;;;;5082445;28;20317;-80
2021/12/03 00:43:46;;;;;;;19.92;8.43;;;;;;;;;;5082760;28;20012;-80
2021/12/03 00:46:15;;;;;;;19.75;7.38;;;;;;;;;;5084516;28;20082;-80
2021/12/03 00:48:41;;;;;;;24.20;7.65;;;;;;;;;;5082672;28;20016;-81
2021/12/03 00:51:08;;;;;;;13.73;7.00;;;;;;;;;;5082542;28;20167;-79
2021/12/03 00:53:33;;;;;;;19.45;7.80;;;;;;;;;;5082265;28;20336;-80
2021/12/03 00:55:59;;;;;;;17.23;6.78;;;;;;;;;;5082196;28;20016;-81
2021/12/03 00:58:24;;;;;;;16.63;6.95;;;;;;;;;;5081777;28;20224;-80
2021/12/03 01:00:50;;;;;;;13.50;7.13;;;;;;;;;;5082896;28;20044;-80
2021/12/03 01:03:15;;;;;;;19.88;7.55;;;;;;;;;;5083016;28;20080;-80
2021/12/03 01:05:41;;;;;;;17.13;6.93;;;;;;;;;;5082555;28;20028;-80
2021/12/03 01:08:06;;;;;;;18.25;7.93;;;;;;;;;;5082833;28;20340;-81
2021/12/03 01:10:32;;;;;;;19.65;7.97;;;;;;;;;;5082638;28;20029;-81
2021/12/03 01:12:57;;;;;;;19.33;8.73;;;;;;;;;;5094051;28;20024;-78
2021/12/03 01:15:27;;;;;;;20.23;8.00;;;;;;;;;;5102638;28;20546;-80
2021/12/03 01:17:52;;;;;;;19.90;8.68;;;;;;;;;;5103021;28;20020;-80
2021/12/03 01:20:19;;;;;;;17.83;8.23;;;;;;;;;;5101743;28;20028;-80
2021/12/03 01:22:47;;;;;;;24.85;8.35;;;;;;;;;;5102225;28;20044;-80
2021/12/03 01:25:14;;;;;;;19.30;7.93;;;;;;;;;;5103234;28;20248;-81
2021/12/03 01:27:40;;;;;;;18.63;8.32;;;;;;;;;;5101858;28;20024;-81
2021/12/03 01:30:09;;;;;;;18.13;8.05;;;;;;;;;;5103120;28;20035;-81
2021/12/03 01:32:35;;;;;;;20.75;7.80;;;;;;;;;;5103137;28;20047;-81
2021/12/03 01:35:01;;;;;;;16.00;7.45;;;;;;;;;;5102968;28;20031;-81
2021/12/03 01:37:26;;;;;;;18.35;7.88;;;;;;;;;;5102973;28;20028;-80
2021/12/03 01:39:52;;;;;;;20.73;7.75;;;;;;;;;;5102772;28;20212;-81
2021/12/03 01:42:17;;;;;;;17.40;8.23;;;;;;;;;;5102696;28;20370;-80
2021/12/03 01:44:43;;;;;;;21.95;8.75;;;;;;;;;;5102218;28;20032;-80
2021/12/03 01:47:08;;;;;;;17.65;8.52;;;;;;;;;;5102853;28;20063;-79
2021/12/03 01:49:34;;;;;;;17.67;8.20;;;;;;;;;;5102635;28;20039;-80
2021/12/03 01:51:59;;;;;;;23.25;8.77;;;;;;;;;;5102814;28;20034;-80
2021/12/03 01:54:25;;;;;;;18.25;8.85;;;;;;;;;;5102365;28;20020;-79
2021/12/03 01:56:51;;;;;;;23.77;9.43;;;;;;;;;;5102608;28;20031;-79
2021/12/03 01:59:16;;;;;;;17.00;8.30;;;;;;;;;;5101211;28;20026;-80
2021/12/03 02:01:41;;;;;;;22.20;9.07;;;;;;;;;;5102702;28;20083;-80
2021/12/03 02:04:07;;;;;;;20.17;8.60;;;;;;;;;;5101293;28;20048;-78
2021/12/03 02:06:33;;;;;;;20.27;8.60;;;;;;;;;;5101585;28;20047;-80
2021/12/03 02:08:59;;;;;;;22.27;8.27;;;;;;;;;;5102362;28;20103;-79
2021/12/03 02:11:25;;;;;;;16.42;8.27;;;;;;;;;;5102278;28;20354;-79
2021/12/03 02:13:51;;;;;;;16.27;7.55;;;;;;;;;;5102264;28;20036;-80
2021/12/03 02:16:18;;;;;;;14.80;7.47;;;;;;;;;;5107304;28;20036;-80
2021/12/03 02:18:43;;;;;;;19.52;8.05;;;;;;;;;;5116183;28;20023;-79
2021/12/03 02:21:10;;;;;;;17.58;7.55;;;;;;;;;;5107914;28;20212;-79
2021/12/03 02:23:36;;;;;;;34.10;8.57;;;;;;;;;;5104421;28;20071;-79
2021/12/03 02:26:03;;;;;;;16.98;7.68;;;;;;;;;;5102277;28;20024;-80
2021/12/03 02:28:32;;;;;;;15.52;7.35;;;;;;;;;;5102105;28;20016;-80
2021/12/03 02:30:57;;;;;;;17.65;7.30;;;;;;;;;;5102044;28;20064;-80
2021/12/03 02:33:24;;;;;;;18.27;7.38;;;;;;;;;;5101743;28;20023;-80
2021/12/03 02:35:50;;;;;;;20.10;7.10;;;;;;;;;;5100541;28;20061;-79
2021/12/03 02:38:19;;;;;;;19.20;7.43;;;;;;;;;;5101992;28;20024;-79
2021/12/03 02:40:48;;;;;;;14.90;6.97;;;;;;;;;;5101767;28;20024;-80
2021/12/03 02:43:14;;;;;;;19.48;7.80;;;;;;;;;;5100444;28;20038;-80
2021/12/03 02:45:40;;;;;;;16.95;6.88;;;;;;;;;;5101621;28;20024;-80
2021/12/03 02:48:06;;;;;;;16.17;7.07;;;;;;;;;;5100264;28;20247;-80
2021/12/03 02:50:32;;;;;;;15.93;6.68;;;;;;;;;;5100231;28;20095;-80
2021/12/03 02:52:57;;;;;;;20.05;7.13;;;;;;;;;;5101533;28;20024;-80
2021/12/03 02:55:25;;;;;;;15.82;6.57;;;;;;;;;;5101755;28;20047;-80
2021/12/03 02:57:50;;;;;;;15.02;6.80;;;;;;;;;;5101427;28;20028;-80
2021/12/03 03:00:20;;;;;;;14.60;6.85;;;;;;;;;;5101341;28;20445;-79
2021/12/03 03:02:46;;;;;;;13.80;6.63;;;;;;;;;;5101134;28;20023;-79
2021/12/03 03:05:13;;;;;;;13.27;6.10;;;;;;;;;;5101281;28;20020;-79
2021/12/03 03:07:39;;;;;;;17.58;6.20;;;;;;;;;;5101340;28;20028;-80
2021/12/03 03:10:10;;;;;;;14.48;6.50;;;;;;;;;;5101184;28;20034;-80
2021/12/03 03:12:36;;;;;;;17.02;6.60;;;;;;;;;;5101155;28;20016;-78
2021/12/03 03:15:02;;;;;;;15.13;7.03;;;;;;;;;;5101027;28;20027;-79
2021/12/03 03:17:30;;;;;;;17.67;6.85;;;;;;;;;;5101193;28;20027;-80
2021/12/03 03:19:57;;;;;;;19.67;7.03;;;;;;;;;;5101245;28;20354;-79
2021/12/03 03:22:23;;;;;;;13.32;6.28;;;;;;;;;;5101027;28;20516;-79
2021/12/03 03:24:49;;;;;;;15.90;6.70;;;;;;;;;;5099797;28;20107;-80
2021/12/03 03:27:16;;;;;;;13.70;6.20;;;;;;;;;;5090281;28;20017;-79
2021/12/03 03:29:44;;;;;;;17.77;7.32;;;;;;;;;;5080592;28;20035;-79
2021/12/03 03:32:10;;;;;;;15.93;6.40;;;;;;;;;;5080956;28;20021;-79
2021/12/03 03:34:35;;;;;;;16.80;6.72;;;;;;;;;;5080782;28;20024;-79
2021/12/03 03:37:01;;;;;;;14.18;5.95;;;;;;;;;;5080748;28;20025;-80
2021/12/03 03:39:26;;;;;;;15.55;6.20;;;;;;;;;;5080685;28;20070;-80
2021/12/03 03:41:52;;;;;;;11.20;6.00;;;;;;;;;;5079543;28;20027;-80
2021/12/03 03:44:17;;;;;;;14.50;6.18;;;;;;;;;;5079692;28;20024;-80
2021/12/03 03:46:44;;;;;;;18.38;6.28;;;;;;;;;;5084807;28;20020;-80
2021/12/03 03:49:09;;;;;;;15.02;6.03;;;;;;;;;;5083589;28;20035;-79
2021/12/03 03:51:35;;;;;;;18.13;6.05;;;;;;;;;;5084963;28;20028;-80
2021/12/03 03:54:01;;;;;;;18.05;7.03;;;;;;;;;;5084721;28;20050;-80
2021/12/03 03:56:30;;;;;;;15.18;6.38;;;;;;;;;;5083146;28;20059;-78
2021/12/03 03:58:56;;;;;;;12.52;5.40;;;;;;;;;;5084503;28;20021;-79
2021/12/03 04:01:22;;;;;;;16.17;5.95;;;;;;;;;;5084833;28;20171;-79
2021/12/03 04:03:48;;;;;;;14.13;5.90;;;;;;;;;;5084740;28;20046;-79
2021/12/03 04:06:18;;;;;;;13.18;5.80;;;;;;;;;;5084697;28;20088;-79
2021/12/03 04:08:45;;;;;;;13.77;5.82;;;;;;;;;;5084491;28;20432;-80
2021/12/03 04:11:11;;;;;;;13.27;5.57;;;;;;;;;;5084294;28;20028;-79
2021/12/03 04:13:36;;;;;;;12.02;5.22;;;;;;;;;;5084152;28;20024;-78
2021/12/03 04:16:02;;;;;;;10.68;4.72;;;;;;;;;;5083187;28;20359;-79
2021/12/03 04:18:28;;;;;;;14.00;5.35;;;;;;;;;;5084452;28;20029;-80
2021/12/03 04:20:53;;;;;;;11.23;5.03;;;;;;;;;;5084251;28;20095;-79
2021/12/03 04:23:20;;;;;;;12.38;4.85;;;;;;;;;;5084136;28;20293;-79
2021/12/03 04:25:47;;;;;;;11.52;5.22;;;;;;;;;;5083720;28;20024;-80
2021/12/03 04:28:12;;;;;;;13.35;4.55;;;;;;;;;;5102698;28;20020;-80
2021/12/03 04:30:38;;;;;;;12.48;5.22;;;;;;;;;;5104358;28;20388;-80
2021/12/03 04:33:04;;;;;;;11.05;4.60;;;;;;;;;;5104459;28;20020;-80
2021/12/03 04:35:30;;;;;;;11.20;4.30;;;;;;;;;;5104071;28;20020;-80
2021/12/03 04:37:56;;;;;;;12.32;4.50;;;;;;;;;;5104338;28;20320;-80
2021/12/03 04:40:22;;;;;;;16.17;4.30;;;;;;;;;;5104027;28;20325;-80
2021/12/03 04:42:48;;;;;;;10.57;4.25;;;;;;;;;;5104002;28;20410;-78
2021/12/03 04:45:18;;;;;;;14.23;4.13;;;;;;;;;;5103763;28;20027;-80
2021/12/03 04:47:45;;;;;;;10.73;4.47;;;;;;;;;;5102752;28;20016;-80
2021/12/03 04:50:12;;;;;;;12.15;4.97;;;;;;;;;;5103905;28;20059;-79
2021/12/03 04:52:38;;;;;;;11.45;5.10;;;;;;;;;;5104037;28;20028;-79
2021/12/03 04:55:05;;;;;;;13.07;4.88;;;;;;;;;;5103720;28;20035;-80
2021/12/03 04:57:31;;;;;;;13.05;4.95;;;;;;;;;;5102094;28;20028;-80
2021/12/03 04:59:56;;;;;;;13.55;5.72;;;;;;;;;;5103673;28;20031;-78
2021/12/03 05:02:24;;;;;;;12.75;4.78;;;;;;;;;;5103827;28;20026;-79
2021/12/03 05:04:51;;;;;;;15.20;5.22;;;;;;;;;;5103373;28;20260;-79
2021/12/03 05:08:01;;;;;;;10.25;4.57;;;;;;;;;;5102366;28;20069;-79
2021/12/03 05:10:07;;;;;;;11.27;4.72;;;;;;;;;;5100217;28;20044;-80
2021/12/03 05:12:33;;;;;;;11.77;4.93;;;;;;;;;;5103426;28;20335;-80
2021/12/03 05:14:58;;;;;;;11.25;4.68;;;;;;;;;;5103465;28;20057;-79
2021/12/03 05:17:24;;;;;;;11.32;4.85;;;;;;;;;;5103285;28;20020;-80
2021/12/03 05:19:50;;;;;;;7.38;3.83;;;;;;;;;;5103206;28;20057;-80
2021/12/03 05:22:15;;;;;;;9.18;4.82;;;;;;;;;;5101678;28;20068;-79
2021/12/03 05:24:45;;;;;;;9.52;4.70;;;;;;;;;;5103350;28;20369;-79
2021/12/03 05:27:15;;;;;;;10.65;5.57;;;;;;;;;;5103955;28;20104;-79
2021/12/03 05:29:43;;;;;;;12.57;4.43;;;;;;;;;;5103981;28;20028;-80
2021/12/03 05:32:09;;;;;;;12.57;4.60;;;;;;;;;;5103626;28;20024;-80
2021/12/03 05:34:35;;;;;;;10.55;4.05;;;;;;;;;;5102855;28;20061;-80
2021/12/03 05:37:01;;;;;;;11.48;4.80;;;;;;;;;;5102926;28;20116;-80
2021/12/03 05:39:26;;;;;;;15.25;5.68;;;;;;;;;;5102945;28;20035;-80
2021/12/03 05:41:52;;;;;;;14.77;5.15;;;;;;;;;;5102547;28;20031;-79
2021/12/03 05:44:17;;;;;;;12.00;5.03;;;;;;;;;;5102192;28;20050;-80
2021/12/03 05:46:42;;;;;;;12.55;4.45;;;;;;;;;;5101436;28;20023;-79
2021/12/03 05:49:08;;;;;;;12.02;4.93;;;;;;;;;;5101462;28;20032;-80
2021/12/03 05:51:34;;;;;;;16.40;5.43;;;;;;;;;;5102808;28;20020;-79
2021/12/03 05:53:59;;;;;;;14.35;4.65;;;;;;;;;;5102527;28;20028;-80
2021/12/03 05:56:24;;;;;;;11.90;5.28;;;;;;;;;;5102444;28;20047;-79
2021/12/03 05:58:50;;;;;;;13.02;5.90;;;;;;;;;;5102565;28;20487;-80
2021/12/03 06:01:17;;;;;;;15.50;4.60;;;;;;;;;;5102315;28;20074;-79
2021/12/03 06:03:45;;;;;;;8.00;3.53;;;;;;;;;;5089630;28;20415;-78
2021/12/03 06:06:11;;;;;;;11.10;4.80;;;;;;;;;;5082130;28;20212;-78
2021/12/03 06:08:36;;;;;;;11.00;3.95;;;;;;;;;;5081575;28;20043;-80
2021/12/03 06:11:02;;;;;;;9.98;3.88;;;;;;;;;;5080920;28;20029;-79
2021/12/03 06:13:27;;;;;;;11.60;4.45;;;;;;;;;;5081665;28;20032;-79
2021/12/03 06:15:54;;;;;;;8.73;3.72;;;;;;;;;;5080695;28;20316;-79
2021/12/03 06:18:19;;;;;;;12.52;4.10;;;;;;;;;;5080750;28;20040;-79
2021/12/03 06:20:45;;;;;;;11.18;4.60;;;;;;;;;;5081868;28;20021;-79
2021/12/03 06:23:10;;;;;;;9.32;3.88;;;;;;;;;;5099524;28;20062;-77
2021/12/03 06:25:36;;;;;;;13.60;4.50;;;;;;;;;;5101469;28;20020;-77
2021/12/03 06:28:01;;;;;;;12.02;3.45;;;;;;;;;;5101896;28;20331;-77
2021/12/03 06:30:27;;;;;;;15.70;4.07;;;;;;;;;;5101610;28;20340;-76
2021/12/03 06:32:53;;;;;;;10.60;3.38;;;;;;;;;;5101633;28;20023;-75
2021/12/03 06:35:19;;;;;;;10.30;3.85;;;;;;;;;;5101298;28;20324;-75
2021/12/03 06:37:45;;;;;;;11.48;3.80;;;;;;;;;;5099480;28;20028;-77
2021/12/03 06:40:15;;;;;;;10.30;3.97;;;;;;;;;;5087820;28;20387;-73
2021/12/03 06:42:40;;;;;;;12.23;4.00;;;;;;;;;;5099497;28;20028;-75
2021/12/03 06:45:06;;;;;;;12.20;4.40;;;;;;;;;;5099522;28;20096;-76
2021/12/03 06:47:33;;;;;;;6.65;3.40;;;;;;;;;;5099836;28;20055;-75
2021/12/03 06:49:59;;;;;;;11.07;4.07;;;;;;;;;;5099498;28;20024;-79
2021/12/03 06:52:25;;;;;;;8.15;3.95;;;;;;;;;;5099252;28;20034;-79
2021/12/03 06:54:56;;;;;;;18.33;4.50;;;;;;;;;;5099636;28;20034;-76
2021/12/03 06:57:21;;;;;;;17.08;4.80;;;;;;;;;;5099403;28;20038;-77
2021/12/03 06:59:47;;;;;;;13.80;4.15;;;;;;;;;;5099704;28;20032;-80
2021/12/03 07:02:13;;;;;;;9.20;3.75;;;;;;;;;;5100054;28;20327;-77
2021/12/03 07:04:40;;;;;;;11.27;4.05;;;;;;;;;;5099957;28;20032;-77
2021/12/03 07:07:06;;;;;;;8.80;3.55;;;;;;;;;;5086470;28;20012;-79
2021/12/03 07:09:31;;;;;;;9.02;3.38;;;;;;;;;;5100002;28;20024;-76
2021/12/03 07:11:57;;;;;;;13.65;4.40;;;;;;;;;;5100663;28;20371;-77
2021/12/03 07:14:22;;;;;;;10.48;3.90;;;;;;;;;;5096577;28;20101;-76
2021/12/03 07:16:48;;;;;;;12.88;3.83;;;;;;;;;;5079685;28;20033;-77
2021/12/03 07:19:13;;;;;;;16.60;4.47;;;;;;;;;;5078468;28;20110;-78
2021/12/03 07:21:40;;;;;;;15.32;4.45;;;;;;;;;;5079167;28;20024;-78
2021/12/03 07:24:06;;;;;;;7.80;3.72;;;;;;;;;;5079331;28;20020;-79
2021/12/03 07:26:31;;;;;;;13.73;5.18;;;;;;;;;;5098937;28;20031;-77
2021/12/03 07:28:57;;;;;;;9.55;3.78;;;;;;;;;;5100503;28;20344;-78
2021/12/03 07:31:22;;;;;;;10.63;4.43;;;;;;;;;;5098943;28;20072;-79
2021/12/03 07:33:48;;;;;;;10.18;4.00;;;;;;;;;;5100223;28;20024;-78
2021/12/03 07:36:14;;;;;;;12.35;4.00;;;;;;;;;;5100706;28;20309;-79
2021/12/03 07:38:39;;;;;;;12.68;4.13;;;;;;;;;;5100263;28;20083;-79
2021/12/03 07:41:05;;;;;;;11.70;3.42;;;;;;;;;;5100545;28;20031;-79
2021/12/03 07:43:30;;;;;;;9.18;3.65;;;;;;;;;;5097358;28;20024;-79
2021/12/03 07:45:56;;;;;;;11.45;3.97;;;;;;;;;;5080521;28;20031;-79
2021/12/03 07:48:22;;;;;;;11.73;4.20;;;;;;;;;;5079993;28;20101;-78
2021/12/03 07:50:50;;;;;;;13.85;3.80;;;;;;;;;;5080325;28;20269;-78
2021/12/03 07:53:19;;;;;;;10.27;3.60;;;;;;;;;;5094951;28;20088;-78
2021/12/03 07:55:48;;;;;;;17.02;6.07;;;;;;;;;;5092388;28;20028;-79
2021/12/03 07:58:15;;;;;;;13.45;4.60;;;;;;;;;;5095205;28;20392;-78
2021/12/03 08:00:41;;;;;;;10.05;3.50;;;;;;;;;;5091239;28;20040;-77
2021/12/03 08:03:06;;;;;;;10.32;3.70;;;;;;;;;;5098689;28;20507;-77
2021/12/03 08:05:33;;;;;;;15.60;4.10;;;;;;;;;;5086809;28;20028;-76
2021/12/03 08:07:59;;;;;;;8.55;3.90;;;;;;;;;;5081712;28;20048;-77
2021/12/03 08:10:25;;;;;;;10.55;3.83;;;;;;;;;;5087000;28;20033;-76
2021/12/03 08:12:51;;;;;;;13.45;4.10;;;;;;;;;;5080532;28;20032;-75
2021/12/03 08:15:18;;;;;;;11.95;4.00;;;;;;;;;;5079285;28;20052;-75
2021/12/03 08:17:48;;;;;;;11.38;4.13;;;;;;;;;;5078934;28;20032;-76
2021/12/03 08:20:14;;;;;;;12.50;3.85;;;;;;;;;;5078815;28;20212;-75
2021/12/03 08:22:40;;;;;;;10.20;4.13;;;;;;;;;;5078291;28;20244;-76
2021/12/03 08:25:09;;;;;;;12.93;4.00;;;;;;;;;;5078706;28;20100;-76
2021/12/03 08:27:34;;;;;;;13.30;3.35;;;;;;;;;;5081168;28;20214;-75
2021/12/03 08:30:00;;;;;;;8.57;3.30;;;;;;;;;;5078356;28;20403;-76
2021/12/03 08:32:25;;;;;;;10.65;3.45;;;;;;;;;;5082447;28;20037;-76
2021/12/03 08:34:51;;;;;;;17.05;4.68;;;;;;;;;;5083701;28;20020;-75
2021/12/03 08:37:16;;;;;;;10.75;4.13;;;;;;;;;;5083581;28;20285;-76
2021/12/03 08:39:42;;;;;;;10.05;4.05;;;;;;;;;;5082789;28;20028;-77
2021/12/03 08:42:10;;;;;;;6.43;2.50;;;;;;;;;;5082192;28;20016;-76
2021/12/03 08:44:36;;;;;;;10.57;3.28;;;;;;;;;;5086384;28;20021;-77
2021/12/03 08:47:04;;;;;;;8.52;3.58;;;;;;;;;;5082357;28;20021;-77
2021/12/03 08:49:39;;;;;;;8.35;2.95;;;;;;;;;;5082288;28;20087;-77
2021/12/03 08:54:52;;;;;;;14.10;3.13;;;;;;;;;;5084209;28;20033;-77
2021/12/03 08:57:26;;;;;;;12.90;3.83;;;;;;;;;;5082071;28;20095;-77
2021/12/03 08:59:56;;;;;;;9.02;3.00;;;;;;;;;;5082745;28;20024;-76
2021/12/03 09:02:22;;;;;;;9.23;4.13;;;;;;;;;;5083287;28;20027;-77
2021/12/03 09:04:49;;;;;;;7.60;3.33;;;;;;;;;;5094842;28;20058;-76
2021/12/03 09:07:15;;;;;;;10.90;3.40;;;;;;;;;;5101609;28;20102;-76
2021/12/03 09:09:41;;;;;;;11.52;3.55;;;;;;;;;;5103145;28;20116;-77
2021/12/03 09:12:07;;;;;;;9.95;3.47;;;;;;;;;;5100081;28;20381;-76
2021/12/03 09:22:17;;;;;;;5.53;2.33;;;;;;;;;;5103015;28;20102;-76
2021/12/03 09:24:42;;;;;;;7.30;3.33;;;;;;;;;;5101940;28;20028;-76
2021/12/03 09:27:08;;;;;;;10.40;4.05;;;;;;;;;;5102738;28;20073;-76
2021/12/03 09:29:35;;;;;;;13.13;3.85;;;;;;;;;;5102433;28;20205;-76
2021/12/03 09:32:01;;;;;;;8.55;3.50;;;;;;;;;;5102920;28;20032;-76
2021/12/03 09:34:30;;;;;;;12.27;3.65;;;;;;;;;;5102847;28;20268;-76
2021/12/03 09:36:56;;;;;;;10.30;3.05;;;;;;;;;;5100345;28;20028;-76
2021/12/03 09:39:23;;;;;;;5.80;2.80;;;;;;;;;;5082233;28;20062;-76
2021/12/03 09:41:55;;;;;;;10.65;3.30;;;;;;;;;;5082375;28;20224;-76
2021/12/03 09:44:21;;;;;;;7.82;3.00;;;;;;;;;;5082060;28;20032;-77
2021/12/03 09:46:48;;;;;;;5.05;2.50;;;;;;;;;;5083100;28;20028;-77
2021/12/03 09:56:49;;;;;;;9.68;3.33;;;;;;;;;;5081753;28;20315;-76
2021/12/03 09:59:50;;;;;;;10.45;3.00;;;;;;;;;;5082162;28;20095;-76
2021/12/03 10:05:36;;;;;;;8.20;2.70;;;;;;;;;;5073220;28;20032;-77
2021/12/03 10:13:17;;;;;;;10.15;3.00;;;;;;;;;;5082319;28;20332;-78
2021/12/03 10:16:19;;;;;;;4.68;2.05;;;;;;;;;;5083066;28;20356;-76
2021/12/03 10:21:41;;;;;;;6.63;3.60;;;;;;;;;;5082598;28;20035;-79
2021/12/03 10:38:29;;;;;;;7.10;2.80;;;;;;;;;;5043827;28;20034;-75
2021/12/03 10:49:02;;;;;;;6.88;3.42;;;;;;;;;;5080891;28;20228;-80
2021/12/03 10:54:05;;;;;;;9.07;4.18;;;;;;;;;;5081090;28;20092;-77
2021/12/03 11:02:19;;;;;;;7.00;2.92;;;;;;;;;;5081587;28;20384;-80
2021/12/03 11:37:55;;;;;;;5.28;2.55;;;;;;;;;;5082397;28;20052;-78
2021/12/03 12:01:43;;;;;;;4.65;2.50;;;;;;;;;;5069144;28;20036;-77
2021/12/03 13:18:54;;;;;;;6.10;3.17;;;;;;;;;;5102097;28;20024;-80
2021/12/03 14:02:01;;;;;;;5.22;2.47;;;;;;;;;;5103178;28;20051;-79
2021/12/03 14:39:04;;;;;;;4.40;2.60;;;;;;;;;;5102063;28;20024;-78
2021/12/03 14:42:06;;;;;;;3.20;1.92;;;;;;;;;;5101516;28;20250;-77
2021/12/03 14:44:52;;;;;;;3.40;2.08;;;;;;;;;;5101769;28;20036;-78
2021/12/03 14:55:35;;;;;;;7.32;3.00;;;;;;;;;;5101837;28;20027;-78
2021/12/03 14:58:10;;;;;;;4.30;2.63;;;;;;;;;;5101418;28;20035;-79
2021/12/03 15:00:50;;;;;;;6.38;2.35;;;;;;;;;;5101463;28;20347;-78
2021/12/03 15:03:28;;;;;;;4.10;2.47;;;;;;;;;;5101466;28;20024;-77
2021/12/03 15:08:35;;;;;;;4.80;2.85;;;;;;;;;;5101301;28;20051;-78
2021/12/03 15:24:24;;;;;;;13.95;9.38;;;;;;;;;;5100777;28;20356;-78
2021/12/03 16:08:29;;;;;;;5.00;2.47;;;;;;;;;;5100101;28;20499;-76
2021/12/03 16:43:44;;;;;;;6.13;2.53;;;;;;;;;;5099652;28;20027;-76
2021/12/03 16:46:21;;;;;;;4.22;2.45;;;;;;;;;;5099585;28;20016;-77
2021/12/03 16:54:12;;;;;;;3.20;2.13;;;;;;;;;;5103693;28;20204;-76
2021/12/03 16:56:44;;;;;;;4.53;2.88;;;;;;;;;;5103042;28;20018;-77
2021/12/03 16:59:42;;;;;;;4.30;2.83;;;;;;;;;;5101832;28;20032;-77
2021/12/03 17:02:14;;;;;;;3.85;2.20;;;;;;;;;;5101794;28;20028;-77
2021/12/03 17:10:53;;;;;;;3.85;2.50;;;;;;;;;;5101965;28;20031;-76
2021/12/03 17:12:53;;;;;;;3.85;2.53;;;;;;;;;;5097337;28;20035;-79
2021/12/03 17:19:08;;;;;;;4.00;2.60;;;;;;;;;;5102462;28;20027;-80
2021/12/03 18:00:05;;;;;;;5.45;3.17;;;;;;;;;;5079974;28;20029;-78
2021/12/03 18:02:46;;;;;;;4.13;2.80;;;;;;;;;;5077806;28;20099;-78
2021/12/03 18:56:00;;;;;;;5.28;2.90;;;;;;;;;;5088563;28;20207;-77
2021/12/03 18:58:27;;;;;;;6.50;3.20;;;;;;;;;;5080644;28;20021;-77
2021/12/03 19:00:54;;;;;;;5.60;3.55;;;;;;;;;;5081652;28;20025;-77
2021/12/03 19:03:28;;;;;;;5.45;2.88;;;;;;;;;;5093331;28;20016;-76
2021/12/03 19:09:05;;;;;;;11.10;5.80;;;;;;;;;;5101354;28;20340;-76
2021/12/03 19:11:18;;;;;;;6.07;3.20;;;;;;;;;;5092386;28;20035;-76
2021/12/03 19:13:43;;;;;;;7.82;4.00;;;;;;;;;;5100165;28;20028;-76
2021/12/03 19:16:15;;;;;;;7.80;4.45;;;;;;;;;;5098655;28;20342;-76
2021/12/03 19:18:45;;;;;;;7.68;4.18;;;;;;;;;;5099718;28;20024;-77
2021/12/03 19:21:18;;;;;;;7.75;4.00;;;;;;;;;;5089435;28;20077;-76
2021/12/03 19:23:43;;;;;;;5.82;3.50;;;;;;;;;;5093769;28;20290;-78
2021/12/03 19:26:09;;;;;;;7.47;4.60;;;;;;;;;;5089128;28;20058;-77
2021/12/03 19:28:36;;;;;;;6.95;3.83;;;;;;;;;;5088196;28;20112;-77
2021/12/03 19:31:02;;;;;;;6.63;3.88;;;;;;;;;;5092174;28;20316;-77
2021/12/03 19:33:28;;;;;;;10.15;4.80;;;;;;;;;;5084849;28;20032;-78
2021/12/03 19:35:54;;;;;;;6.43;4.03;;;;;;;;;;5096158;28;20065;-77
2021/12/03 19:38:19;;;;;;;7.50;4.85;;;;;;;;;;5081981;28;20023;-77
2021/12/03 19:40:58;;;;;;;7.32;4.40;;;;;;;;;;5090303;28;20035;-78
2021/12/03 19:43:39;;;;;;;9.10;4.72;;;;;;;;;;5100804;28;20020;-77
2021/12/03 19:46:06;;;;;;;9.85;5.25;;;;;;;;;;5088473;28;20095;-79
2021/12/03 19:48:49;;;;;;;12.77;6.43;;;;;;;;;;5096988;28;20088;-79
2021/12/03 19:51:16;;;;;;;11.23;5.97;;;;;;;;;;5091785;28;20082;-78
2021/12/03 19:53:55;;;;;;;7.70;5.40;;;;;;;;;;5080612;28;20024;-78
2021/12/03 19:56:23;;;;;;;10.18;5.18;;;;;;;;;;5095354;28;20095;-78
2021/12/03 19:58:48;;;;;;;10.07;5.75;;;;;;;;;;5100636;28;20026;-78
2021/12/03 20:01:15;;;;;;;9.75;5.80;;;;;;;;;;5095045;28;20377;-78
2021/12/03 20:03:40;;;;;;;11.40;6.65;;;;;;;;;;5091052;28;20225;-77
2021/12/03 20:06:06;;;;;;;12.45;7.18;;;;;;;;;;5078885;28;20036;-77
2021/12/03 20:08:33;;;;;;;11.23;7.15;;;;;;;;;;5087304;28;20095;-77
2021/12/03 20:11:02;;;;;;;11.63;7.47;;;;;;;;;;5079764;28;20028;-77
2021/12/03 20:13:27;;;;;;;13.05;7.43;;;;;;;;;;5078689;28;20216;-78
2021/12/03 20:18:33;;;;;;;15.82;8.98;;;;;;;;;;5080506;28;20300;-78
2021/12/03 20:20:59;;;;;;;14.50;7.32;;;;;;;;;;5099957;28;20024;-78
2021/12/03 20:23:32;;;;;;;12.35;7.78;;;;;;;;;;5099336;28;20062;-78
2021/12/03 20:28:54;;;;;;;9.77;6.70;;;;;;;;;;5082379;28;20135;-78
2021/12/03 20:31:23;;;;;;;10.38;6.90;;;;;;;;;;5082947;28;20044;-77
2021/12/03 20:38:52;;;;;;;11.57;8.02;;;;;;;;;;5091249;28;20068;-75
2021/12/03 20:41:28;;;;;;;12.55;8.77;;;;;;;;;;5091805;28;20016;-76
2021/12/03 20:52:08;;;;;;;12.13;8.25;;;;;;;;;;5082971;28;20020;-75
2021/12/03 21:07:56;;;;;;;10.23;5.65;;;;;;;;;;5082817;28;20028;-77
2021/12/03 21:10:26;;;;;;;8.35;5.57;;;;;;;;;;5086521;28;20024;-77
2021/12/03 21:12:54;;;;;;;12.57;6.55;;;;;;;;;;5087227;28;20027;-77
2021/12/03 21:16:09;;;;;;;10.05;6.40;;;;;;;;;;5094712;28;20011;-75
2021/12/03 21:20:51;;;;;;;7.20;5.28;;;;;;;;;;5101371;28;20355;-76
2021/12/03 21:23:19;;;;;;;9.38;6.65;;;;;;;;;;5100569;28;20308;-74
2021/12/03 21:25:49;;;;;;;12.07;6.05;;;;;;;;;;5101260;28;20027;-75
2021/12/03 21:28:32;;;;;;;10.13;6.07;;;;;;;;;;5101831;28;20050;-77
2021/12/03 21:31:22;;;;;;;11.98;7.32;;;;;;;;;;5102243;28;20066;-75
2021/12/03 21:41:47;;;;;;;10.50;6.97;;;;;;;;;;5080186;28;20028;-76
2021/12/03 21:44:14;;;;;;;12.20;8.10;;;;;;;;;;5081014;28;20028;-77
2021/12/03 21:46:42;;;;;;;11.90;7.28;;;;;;;;;;5082754;28;20029;-76
2021/12/03 21:49:11;;;;;;;10.00;7.05;;;;;;;;;;5098810;28;20024;-76
2021/12/03 21:51:39;;;;;;;9.00;6.55;;;;;;;;;;5092509;28;20336;-77
2021/12/03 21:54:05;;;;;;;13.15;7.95;;;;;;;;;;5098647;28;20031;-76
2021/12/03 21:56:31;;;;;;;9.85;6.95;;;;;;;;;;5093401;28;20020;-76
2021/12/03 21:58:57;;;;;;;10.45;6.88;;;;;;;;;;5085660;28;20099;-76
2021/12/03 22:01:23;;;;;;;11.32;7.25;;;;;;;;;;5092205;28;20091;-75
2021/12/03 22:03:48;;;;;;;10.30;6.63;;;;;;;;;;5099895;28;20227;-75
2021/12/03 22:06:14;;;;;;;12.52;7.65;;;;;;;;;;5094440;28;20096;-75
2021/12/03 22:08:40;;;;;;;11.05;6.82;;;;;;;;;;5086671;28;20035;-75
2021/12/03 22:11:05;;;;;;;12.45;7.60;;;;;;;;;;5092911;28;20246;-75
2021/12/03 22:13:31;;;;;;;14.98;8.32;;;;;;;;;;5094084;28;20354;-75
2021/12/03 22:16:00;;;;;;;11.05;6.85;;;;;;;;;;5086308;28;20380;-77
2021/12/03 22:18:27;;;;;;;10.55;7.25;;;;;;;;;;5095154;28;20113;-76
2021/12/03 22:20:59;;;;;;;14.90;7.60;;;;;;;;;;5098136;28;20043;-77
2021/12/03 22:23:25;;;;;;;12.00;6.90;;;;;;;;;;5102060;28;20209;-77
2021/12/03 22:25:52;;;;;;;14.02;8.40;;;;;;;;;;5096896;28;20054;-77
2021/12/03 22:28:19;;;;;;;13.77;8.40;;;;;;;;;;5095677;28;20073;-77
2021/12/03 22:30:44;;;;;;;13.88;8.13;;;;;;;;;;5099891;28;20028;-77
2021/12/03 22:33:12;;;;;;;14.27;8.98;;;;;;;;;;5082524;28;20031;-77
2021/12/03 22:35:38;;;;;;;13.68;8.55;;;;;;;;;;5080876;28;20032;-77
2021/12/03 22:38:15;;;;;;;13.52;8.70;;;;;;;;;;5088925;28;20069;-77
2021/12/03 22:40:43;;;;;;;14.63;9.20;;;;;;;;;;5099902;28;20047;-77
2021/12/03 22:43:11;;;;;;;12.68;8.68;;;;;;;;;;5081081;28;20024;-77
2021/12/03 22:50:59;;;;;;;14.30;8.82;;;;;;;;;;5068456;28;20055;-77
2021/12/03 22:53:24;;;;;;;21.85;11.82;;;;;;;;;;5066667;28;20463;-77
2021/12/03 22:55:50;;;;;;;14.82;9.02;;;;;;;;;;5081054;28;20024;-76
2021/12/03 22:58:16;;;;;;;14.18;8.65;;;;;;;;;;5069322;28;20025;-77
2021/12/03 23:00:50;;;;;;;14.50;7.93;;;;;;;;;;5065057;28;20127;-76
2021/12/03 23:03:16;;;;;;;13.88;8.35;;;;;;;;;;5079971;28;20095;-77
2021/12/03 23:05:42;;;;;;;9.75;6.38;;;;;;;;;;5068475;28;20033;-77
2021/12/03 23:08:08;;;;;;;10.00;6.38;;;;;;;;;;5081544;28;20020;-77
2021/12/03 23:10:35;;;;;;;10.98;5.85;;;;;;;;;;5078138;28;20024;-76
2021/12/03 23:13:01;;;;;;;11.73;6.65;;;;;;;;;;5081188;28;20046;-77
2021/12/03 23:15:27;;;;;;;8.23;4.88;;;;;;;;;;5081194;28;20021;-76